Time;durP1;ratioP1;P1;durP2;ratioP2;P2;SDS_P1;SDS_P2;PMS_P1;PMS_P2;Temp;Humidity;BMP_temperature;BMP_pressure;BME280_temperature;BME280_humidity;BME280_pressure;Samples;Min_cycle;Max_cycle;Signal;HPM_P1;HPM_P2
2022/07/18 00:02:05;;;;;;;3.50;3.20;;;;;;;24.97;33.73;99940.97;5091799;28;20301;-65
2022/07/18 00:04:32;;;;;;;3.10;2.80;;;;;;;24.91;33.48;99943.84;5091726;28;20190;-65
2022/07/18 00:07:00;;;;;;;5.10;3.28;;;;;;;24.92;34.02;99950.78;5091153;28;20937;-65
2022/07/18 00:09:27;;;;;;;3.20;2.60;;;;;;;24.92;33.20;99949.94;5091351;28;20191;-65
2022/07/18 00:11:54;;;;;;;6.00;2.60;;;;;;;24.88;33.65;99950.97;5091362;28;20215;-65
2022/07/18 00:14:22;;;;;;;3.20;2.90;;;;;;;24.85;33.32;99948.44;5091540;28;20190;-66
2022/07/18 00:16:49;;;;;;;2.80;2.50;;;;;;;24.81;33.13;99957.31;5091463;28;20585;-67
2022/07/18 00:19:17;;;;;;;3.70;2.50;;;;;;;24.74;32.68;99956.66;5090617;28;20195;-65
2022/07/18 00:21:44;;;;;;;2.83;2.40;;;;;;;24.76;32.50;99959.22;5091184;28;20194;-65
2022/07/18 00:24:12;;;;;;;3.20;2.83;;;;;;;24.70;33.15;99955.03;5091094;28;20191;-66
2022/07/18 00:26:39;;;;;;;2.93;2.73;;;;;;;24.65;32.75;99954.34;5091263;28;20207;-65
2022/07/18 00:29:06;;;;;;;6.47;2.93;;;;;;;24.64;31.86;99969.25;5090838;28;20191;-65
2022/07/18 00:31:33;;;;;;;3.63;2.63;;;;;;;24.61;32.56;99963.25;5090755;28;20601;-65
2022/07/18 00:34:01;;;;;;;2.87;2.47;;;;;;;24.54;31.90;99951.22;5090859;28;20569;-65
2022/07/18 00:36:29;;;;;;;3.23;2.67;;;;;;;24.50;31.85;99957.50;5091056;28;20187;-66
2022/07/18 00:38:57;;;;;;;3.03;2.47;;;;;;;24.42;31.63;99955.09;5091216;28;20255;-67
2022/07/18 00:41:26;;;;;;;3.60;2.37;;;;;;;24.41;31.10;99953.41;5089759;28;20931;-65
2022/07/18 00:43:53;;;;;;;4.47;2.30;;;;;;;24.45;31.05;99957.63;5090817;28;20562;-67
2022/07/18 00:46:23;;;;;;;2.50;2.30;;;;;;;24.33;30.52;99967.69;5090831;28;20201;-66
2022/07/18 00:48:50;;;;;;;2.20;2.00;;;;;;;24.15;30.21;99955.13;5091073;28;20319;-65
2022/07/18 00:51:17;;;;;;;3.17;2.20;;;;;;;24.19;29.96;99962.88;5090773;28;20558;-66
2022/07/18 00:53:44;;;;;;;2.83;2.00;;;;;;;24.04;30.67;99947.53;5090930;28;20285;-66
2022/07/18 00:56:13;;;;;;;2.90;2.60;;;;;;;24.03;30.58;99967.69;5090728;28;20191;-65
2022/07/18 00:58:43;;;;;;;3.80;2.40;;;;;;;24.03;30.68;99967.69;5089599;28;20428;-66
2022/07/18 01:03:50;;;;;;;2.90;2.43;;;;;;;24.01;30.53;99964.25;5081452;28;20565;-66
2022/07/18 01:06:17;;;;;;;2.43;2.23;;;;;;;23.93;30.32;99975.91;5090599;28;20199;-66
2022/07/18 01:08:44;;;;;;;5.20;2.40;;;;;;;23.93;30.32;99971.50;5090437;28;20240;-66
2022/07/18 01:11:11;;;;;;;2.90;2.13;;;;;;;23.79;29.61;99964.94;5090134;28;20226;-65
2022/07/18 01:13:39;;;;;;;2.33;2.03;;;;;;;23.81;29.69;99981.53;5090346;28;20190;-66
2022/07/18 01:16:08;;;;;;;2.97;2.10;;;;;;;23.73;29.57;99984.38;5090235;28;20187;-66
2022/07/18 01:18:35;;;;;;;2.73;2.50;;;;;;;23.66;29.82;99972.34;5090732;28;20255;-66
2022/07/18 01:21:03;;;;;;;3.93;2.17;;;;;;;23.58;30.67;99976.94;5090745;28;20198;-65
2022/07/18 01:23:30;;;;;;;4.07;1.97;;;;;;;23.60;30.64;99974.28;5090165;28;20199;-65
2022/07/18 01:25:57;;;;;;;2.47;2.30;;;;;;;23.56;30.77;99984.00;5090174;28;20689;-66
2022/07/18 01:28:24;;;;;;;3.60;2.40;;;;;;;23.60;30.62;99985.63;5090094;28;20209;-66
2022/07/18 01:30:50;;;;;;;2.20;2.00;;;;;;;23.58;30.77;99976.94;5089349;28;20701;-65
2022/07/18 01:33:17;;;;;;;4.80;2.27;;;;;;;23.53;31.17;99980.59;5089883;28;20546;-66
2022/07/18 01:35:44;;;;;;;4.40;2.73;;;;;;;23.48;31.20;99983.38;5090269;28;20191;-66
2022/07/18 01:38:13;;;;;;;5.47;2.00;;;;;;;23.44;30.92;99981.72;5090161;28;20229;-66
2022/07/18 01:40:40;;;;;;;2.47;1.93;;;;;;;23.41;31.44;99981.81;5089964;28;20763;-66
2022/07/18 01:43:07;;;;;;;3.00;2.07;;;;;;;23.35;31.05;99980.19;5089830;28;20539;-66
2022/07/18 01:45:34;;;;;;;3.50;2.03;;;;;;;23.38;31.25;99977.50;5090218;28;20379;-66
2022/07/18 01:48:01;;;;;;;5.53;2.30;;;;;;;23.41;31.57;99992.31;5089544;28;20443;-66
2022/07/18 01:50:28;;;;;;;2.50;2.20;;;;;;;23.41;31.82;99981.81;5089881;28;20305;-66
2022/07/18 01:52:55;;;;;;;2.63;2.43;;;;;;;23.39;32.15;99981.00;5089922;28;20194;-65
2022/07/18 01:55:23;;;;;;;5.17;2.47;;;;;;;23.34;32.35;99985.50;5089855;28;20195;-65
2022/07/18 01:57:50;;;;;;;2.80;2.60;;;;;;;23.27;33.06;99983.91;5089777;28;20230;-66
2022/07/18 02:00:17;;;;;;;2.73;2.30;;;;;;;23.17;32.99;99983.31;5090045;28;20195;-66
2022/07/18 02:02:44;;;;;;;2.50;2.30;;;;;;;23.05;33.04;99988.00;5089747;28;20187;-66
2022/07/18 02:05:11;;;;;;;4.37;2.50;;;;;;;23.04;33.19;99983.69;5089877;28;20194;-65
2022/07/18 02:07:42;;;;;;;4.63;2.40;;;;;;;23.08;32.87;99986.19;5089943;28;20565;-65
2022/07/18 02:10:11;;;;;;;4.40;2.50;;;;;;;23.07;33.07;99991.47;5089625;28;20195;-66
2022/07/18 02:12:40;;;;;;;2.70;2.50;;;;;;;23.00;33.49;99982.91;5089844;28;20222;-66
2022/07/18 02:15:09;;;;;;;2.80;2.60;;;;;;;23.06;33.22;99987.13;5089472;28;20194;-66
2022/07/18 02:17:37;;;;;;;2.57;2.40;;;;;;;22.94;33.43;99987.47;5089647;28;20256;-65
2022/07/18 02:20:05;;;;;;;4.27;2.43;;;;;;;22.97;33.83;99989.97;5089511;28;20214;-66
2022/07/18 02:22:32;;;;;;;4.27;2.47;;;;;;;22.92;34.07;99997.97;5089593;28;20624;-65
2022/07/18 02:24:58;;;;;;;3.10;2.67;;;;;;;22.87;34.38;100000.72;5089793;28;20209;-65
2022/07/18 02:27:25;;;;;;;5.00;2.80;;;;;;;22.79;35.00;100007.06;5089657;28;20187;-65
2022/07/18 02:29:54;;;;;;;6.07;3.00;;;;;;;22.73;35.31;100008.06;5089450;28;20187;-65
2022/07/18 02:32:22;;;;;;;3.93;3.00;;;;;;;22.76;35.62;100005.38;5089540;28;20229;-66
2022/07/18 02:34:50;;;;;;;3.30;2.63;;;;;;;22.69;36.17;100011.66;5089570;28;20201;-65
2022/07/18 02:37:17;;;;;;;3.37;3.07;;;;;;;22.71;35.50;100004.63;5089481;28;20570;-65
2022/07/18 02:39:44;;;;;;;2.92;2.53;;;;;;;22.64;35.54;100003.03;5088994;28;20493;-64
2022/07/18 02:42:11;;;;;;;3.93;2.77;;;;;;;22.65;35.37;100006.53;5089700;28;20198;-66
2022/07/18 02:44:38;;;;;;;4.90;2.83;;;;;;;22.63;35.18;100014.44;5093222;28;20195;-66
2022/07/18 02:47:06;;;;;;;2.90;2.60;;;;;;;22.49;35.68;99997.28;5093241;28;20194;-66
2022/07/18 02:49:33;;;;;;;4.17;2.87;;;;;;;22.55;35.77;100018.94;5093252;28;20191;-66
2022/07/18 02:52:01;;;;;;;3.70;2.63;;;;;;;22.55;35.75;100024.19;5092860;28;20268;-65
2022/07/18 02:54:29;;;;;;;2.97;2.73;;;;;;;22.36;36.02;99994.09;5093339;28;20195;-65
2022/07/18 02:56:56;;;;;;;3.33;2.43;;;;;;;22.51;36.25;100021.69;5092914;28;20222;-65
2022/07/18 02:59:23;;;;;;;3.00;2.70;;;;;;;22.45;35.60;100008.72;5092994;28;20203;-65
2022/07/18 03:01:50;;;;;;;4.93;2.90;;;;;;;22.44;36.01;100010.50;5092869;28;20377;-65
2022/07/18 03:04:19;;;;;;;4.27;2.90;;;;;;;22.37;36.02;100008.91;5092880;28;20201;-65
2022/07/18 03:06:47;;;;;;;4.37;2.67;;;;;;;22.43;35.69;100011.41;5092928;28;20191;-65
2022/07/18 03:09:15;;;;;;;4.33;2.50;;;;;;;22.32;36.06;99997.69;5092644;28;20194;-65
2022/07/18 03:11:42;;;;;;;2.63;2.43;;;;;;;22.40;35.78;100011.47;5092490;28;20221;-65
2022/07/18 03:14:08;;;;;;;2.53;2.33;;;;;;;22.47;35.37;100013.03;5092620;28;20198;-66
2022/07/18 03:16:36;;;;;;;3.23;2.60;;;;;;;22.56;35.60;100011.94;5092429;28;20214;-65
2022/07/18 03:19:03;;;;;;;4.27;2.47;;;;;;;22.64;35.13;100015.28;5092750;28;20561;-66
2022/07/18 03:21:31;;;;;;;4.53;2.70;;;;;;;22.67;35.20;100017.81;5092623;28;20183;-66
2022/07/18 03:23:58;;;;;;;4.23;2.47;;;;;;;22.79;34.72;100021.03;5092493;28;20191;-66
2022/07/18 03:26:25;;;;;;;3.10;2.60;;;;;;;22.84;34.82;100015.66;5092350;28;20195;-66
2022/07/18 03:28:52;;;;;;;5.43;2.50;;;;;;;22.97;34.30;100010.94;5092109;28;20692;-65
2022/07/18 03:31:19;;;;;;;5.63;2.70;;;;;;;23.10;33.54;100021.06;5091139;28;20443;-65
2022/07/18 03:33:46;;;;;;;2.93;2.73;;;;;;;23.21;33.21;100024.28;5092421;28;20198;-65
2022/07/18 03:36:12;;;;;;;2.50;2.30;;;;;;;23.16;33.13;100020.91;5092344;28;20248;-65
2022/07/18 03:38:42;;;;;;;3.97;2.43;;;;;;;23.20;33.00;100016.47;5092283;28;20248;-65
2022/07/18 03:41:10;;;;;;;2.03;1.87;;;;;;;23.24;32.72;100025.97;5091975;28;20665;-65
2022/07/18 03:43:37;;;;;;;5.70;2.50;;;;;;;23.28;32.72;100030.22;5092193;28;20217;-65
2022/07/18 03:46:04;;;;;;;3.07;2.10;;;;;;;23.22;32.36;100025.13;5091873;28;20255;-65
2022/07/18 03:48:31;;;;;;;2.77;2.20;;;;;;;23.20;32.23;100021.72;5091801;28;20685;-65
2022/07/18 03:50:58;;;;;;;6.47;2.17;;;;;;;23.23;32.49;100032.13;5091863;28;20191;-65
2022/07/18 03:53:24;;;;;;;2.37;2.00;;;;;;;23.22;31.93;100033.88;5091579;28;20282;-66
2022/07/18 03:55:53;;;;;;;5.13;2.23;;;;;;;23.28;31.90;100027.59;5090958;28;20677;-65
2022/07/18 03:58:20;;;;;;;3.10;2.53;;;;;;;23.32;31.72;100034.50;5091400;28;20237;-65
2022/07/18 04:00:47;;;;;;;10.97;2.43;;;;;;;23.37;31.60;100036.13;5091868;28;20194;-65
2022/07/18 04:03:14;;;;;;;2.40;2.20;;;;;;;23.30;31.65;100037.16;5091276;28;20436;-65
2022/07/18 04:05:40;;;;;;;3.93;2.60;;;;;;;23.44;31.43;100044.69;5091504;28;20657;-66
2022/07/18 04:08:07;;;;;;;5.13;2.60;;;;;;;23.37;31.37;100049.25;5091503;28;20194;-65
2022/07/18 04:10:34;;;;;;;2.93;2.33;;;;;;;23.25;31.59;100051.28;5091333;28;20191;-65
2022/07/18 04:13:02;;;;;;;2.77;2.50;;;;;;;23.20;31.72;100045.31;5091185;28;20226;-65
2022/07/18 04:15:31;;;;;;;4.57;2.40;;;;;;;23.25;31.59;100046.03;5091557;28;20191;-65
2022/07/18 04:17:58;;;;;;;4.00;2.27;;;;;;;23.23;31.30;100046.09;5091226;28;20191;-66
2022/07/18 04:20:25;;;;;;;2.70;2.50;;;;;;;23.23;31.67;100045.22;5090850;28;20731;-65
2022/07/18 04:22:54;;;;;;;5.73;2.40;;;;;;;23.18;31.41;100041.88;5091114;28;20194;-65
2022/07/18 04:25:24;;;;;;;3.67;2.07;;;;;;;23.30;31.22;100042.41;5091117;28;20653;-66
2022/07/18 04:27:51;;;;;;;2.27;2.07;;;;;;;23.37;31.47;100051.88;5090847;28;20191;-65
2022/07/18 04:30:22;;;;;;;2.53;2.33;;;;;;;23.37;31.29;100044.00;5091053;28;20191;-65
2022/07/18 04:32:48;;;;;;;2.40;2.10;;;;;;;23.43;30.88;100048.22;5090928;28;20550;-65
2022/07/18 04:35:15;;;;;;;3.83;1.80;;;;;;;23.41;30.26;100056.13;5091261;28;20252;-65
2022/07/18 04:37:42;;;;;;;2.60;1.90;;;;;;;23.41;30.54;100050.00;5091053;28;20187;-65
2022/07/18 04:40:11;;;;;;;2.97;1.80;;;;;;;23.48;30.39;100059.44;5090934;28;20241;-66
2022/07/18 04:42:38;;;;;;;6.67;2.30;;;;;;;23.56;30.95;100062.72;5091004;28;20191;-66
2022/07/18 04:45:07;;;;;;;2.33;2.13;;;;;;;23.67;30.31;100067.66;5090814;28;20230;-66
2022/07/18 04:47:35;;;;;;;2.90;2.03;;;;;;;23.76;30.06;100073.50;5090665;28;20190;-65
2022/07/18 04:50:02;;;;;;;2.53;2.10;;;;;;;23.81;30.35;100074.25;5090562;28;20202;-65
2022/07/18 04:52:36;;;;;;;2.40;2.03;;;;;;;23.89;29.96;100079.28;5090165;28;20252;-66
2022/07/18 04:55:04;;;;;;;13.95;2.75;;;;;;;23.82;30.32;100080.34;5089681;28;20432;-66
2022/07/18 04:57:30;;;;;;;5.30;2.60;;;;;;;23.90;29.91;100083.59;5089777;28;20230;-65
2022/07/18 04:59:57;;;;;;;3.23;2.00;;;;;;;23.93;29.88;100087.00;5090324;28;20199;-66
2022/07/18 05:02:24;;;;;;;2.93;2.20;;;;;;;23.89;30.41;100097.66;5090114;28;20199;-66
2022/07/18 05:04:52;;;;;;;4.77;2.17;;;;;;;23.86;30.40;100085.47;5090049;28;20241;-67
2022/07/18 05:07:19;;;;;;;5.30;2.60;;;;;;;23.88;30.31;100096.78;5089971;28;20203;-66
2022/07/18 05:09:46;;;;;;;2.37;2.03;;;;;;;23.87;31.09;100102.94;5090187;28;20209;-66
2022/07/18 05:12:12;;;;;;;2.90;2.10;;;;;;;23.90;30.19;100094.97;5089222;28;20451;-66
2022/07/18 05:14:39;;;;;;;2.33;2.10;;;;;;;23.96;30.48;100102.69;5090048;28;20198;-65
2022/07/18 05:17:06;;;;;;;2.30;2.10;;;;;;;23.98;30.17;100107.91;5089664;28;20195;-66
2022/07/18 05:19:33;;;;;;;3.10;2.30;;;;;;;23.98;30.15;100095.63;5089539;28;20202;-65
2022/07/18 05:22:01;;;;;;;2.67;2.00;;;;;;;24.04;30.37;100105.94;5089558;28;20171;-65
2022/07/18 05:24:28;;;;;;;2.60;2.03;;;;;;;24.08;29.90;100106.72;5089627;28;20197;-65
2022/07/18 05:26:55;;;;;;;3.00;2.30;;;;;;;24.04;30.20;100107.72;5089576;28;20240;-66
2022/07/18 05:29:22;;;;;;;4.23;2.33;;;;;;;24.06;30.13;100113.81;5089685;28;20191;-65
2022/07/18 05:31:48;;;;;;;4.07;2.40;;;;;;;24.05;30.04;100107.69;5089641;28;20221;-65
2022/07/18 05:34:15;;;;;;;6.17;2.70;;;;;;;24.17;30.33;100106.50;5089230;28;20187;-65
2022/07/18 05:36:42;;;;;;;3.40;3.10;;;;;;;24.22;30.43;100095.84;5089455;28;20256;-66
2022/07/18 05:39:10;;;;;;;5.57;3.20;;;;;;;24.30;30.21;100096.47;5089931;28;20251;-65
2022/07/18 05:41:37;;;;;;;10.70;2.43;;;;;;;24.38;30.08;100105.00;5089579;28;20582;-57
2022/07/18 05:44:04;;;;;;;4.30;2.33;;;;;;;24.40;30.74;100103.16;5089759;28;20199;-57
2022/07/18 05:46:31;;;;;;;4.90;2.47;;;;;;;24.44;30.61;100099.56;5089508;28;20684;-57
2022/07/18 05:48:58;;;;;;;3.20;2.27;;;;;;;24.51;30.53;100101.94;5089488;28;20702;-57
2022/07/18 05:51:25;;;;;;;6.00;2.40;;;;;;;24.62;30.54;100096.34;5089570;28;20213;-57
2022/07/18 05:53:52;;;;;;;4.70;2.33;;;;;;;24.51;30.51;100090.56;5089217;28;20198;-58
2022/07/18 05:56:20;;;;;;;2.77;2.50;;;;;;;24.56;30.71;100093.91;5089034;28;20681;-57
2022/07/18 05:58:47;;;;;;;3.00;2.67;;;;;;;24.63;30.51;100092.81;5088965;28;20703;-57
2022/07/18 06:01:16;;;;;;;4.20;2.50;;;;;;;24.59;30.05;100092.06;5089250;28;20207;-58
2022/07/18 06:03:43;;;;;;;2.60;2.40;;;;;;;24.59;30.29;100076.28;5088160;28;20420;-57
2022/07/18 06:06:10;;;;;;;3.20;2.27;;;;;;;24.67;30.19;100083.91;5088960;28;20527;-57
2022/07/18 06:08:37;;;;;;;5.60;2.90;;;;;;;24.73;30.53;100067.09;5088999;28;20687;-57
2022/07/18 06:11:06;;;;;;;2.70;2.30;;;;;;;24.78;30.40;100076.56;5089344;28;20206;-57
2022/07/18 06:13:35;;;;;;;4.43;2.63;;;;;;;24.85;30.33;100078.13;5089013;28;20214;-57
2022/07/18 06:16:02;;;;;;;3.23;2.43;;;;;;;24.78;30.57;100079.19;5088912;28;20191;-57
2022/07/18 06:18:29;;;;;;;5.23;2.60;;;;;;;24.84;30.17;100086.91;5091159;28;20198;-57
2022/07/18 06:20:55;;;;;;;4.13;2.43;;;;;;;24.85;30.55;100086.00;5092917;28;20198;-57
2022/07/18 06:23:23;;;;;;;4.83;2.83;;;;;;;24.94;30.47;100075.16;5092901;28;20187;-57
2022/07/18 06:25:49;;;;;;;4.07;3.17;;;;;;;24.82;30.54;100075.59;5092665;28;20194;-57
2022/07/18 06:28:16;;;;;;;5.67;2.40;;;;;;;24.79;30.96;100078.31;5092765;28;20195;-57
2022/07/18 06:30:44;;;;;;;3.30;2.40;;;;;;;24.80;30.65;100085.31;5092985;28;20195;-58
2022/07/18 06:33:13;;;;;;;5.10;2.10;;;;;;;24.81;30.86;100080.88;5092584;28;20219;-57
2022/07/18 06:35:40;;;;;;;3.37;2.37;;;;;;;24.73;30.37;100054.81;5092753;28;20337;-57
2022/07/18 06:38:07;;;;;;;6.17;2.57;;;;;;;24.92;30.56;100087.50;5092846;28;20209;-57
2022/07/18 06:40:34;;;;;;;3.87;2.30;;;;;;;24.96;30.43;100081.25;5092920;28;20195;-57
2022/07/18 06:43:01;;;;;;;4.67;2.53;;;;;;;25.13;30.20;100085.97;5092679;28;20629;-56
2022/07/18 06:45:28;;;;;;;5.80;2.47;;;;;;;25.21;29.79;100079.53;5092597;28;20648;-57
2022/07/18 06:47:56;;;;;;;3.33;2.70;;;;;;;25.27;29.69;100083.72;5092673;28;20203;-57
2022/07/18 06:50:23;;;;;;;3.33;2.53;;;;;;;25.25;29.46;100085.53;5092302;28;20194;-57
2022/07/18 06:52:50;;;;;;;5.17;2.33;;;;;;;25.33;29.79;100085.25;5092210;28;20222;-58
2022/07/18 06:55:17;;;;;;;3.72;2.60;;;;;;;25.39;29.32;100092.94;5091441;28;20440;-57
2022/07/18 06:57:44;;;;;;;5.63;2.77;;;;;;;25.42;29.83;100062.13;5092139;28;20740;-58
2022/07/18 07:00:13;;;;;;;3.03;2.70;;;;;;;25.74;29.54;100085.56;5092396;28;20333;-57
2022/07/18 07:02:44;;;;;;;3.40;2.40;;;;;;;25.84;28.91;100082.59;5092045;28;20190;-57
2022/07/18 07:05:13;;;;;;;3.63;2.77;;;;;;;25.88;28.39;100087.69;5091805;28;20186;-57
2022/07/18 07:07:40;;;;;;;4.83;2.43;;;;;;;25.95;28.72;100096.25;5091853;28;20190;-58
2022/07/18 07:10:08;;;;;;;5.97;2.23;;;;;;;25.93;27.78;100087.53;5091673;28;20191;-57
2022/07/18 07:12:39;;;;;;;4.23;2.10;;;;;;;25.90;27.89;100082.38;5091598;28;20233;-57
2022/07/18 07:15:08;;;;;;;3.10;2.30;;;;;;;25.96;28.29;100085.63;5091611;28;20190;-58
2022/07/18 07:17:36;;;;;;;3.33;2.07;;;;;;;26.11;27.90;100082.44;5092214;28;20201;-58
2022/07/18 07:20:03;;;;;;;3.03;2.07;;;;;;;26.22;27.60;100074.16;5091850;28;20611;-58
2022/07/18 07:22:32;;;;;;;4.90;2.60;;;;;;;26.19;27.69;100077.78;5091977;28;20767;-57
2022/07/18 07:24:58;;;;;;;8.00;2.43;;;;;;;26.21;27.33;100075.94;5091901;28;20198;-58
2022/07/18 07:27:25;;;;;;;2.78;2.47;;;;;;;26.21;28.55;100075.06;5091251;28;20443;-57
2022/07/18 07:29:52;;;;;;;2.50;2.30;;;;;;;26.35;28.68;100078.91;5091458;28;20568;-57
2022/07/18 07:32:19;;;;;;;3.93;2.10;;;;;;;26.50;28.28;100069.53;5091569;28;20237;-58
2022/07/18 07:34:46;;;;;;;3.43;2.37;;;;;;;26.54;27.99;100072.88;5091619;28;20195;-57
2022/07/18 07:37:12;;;;;;;4.73;2.30;;;;;;;26.60;27.53;100078.78;5091614;28;20202;-57
2022/07/18 07:39:41;;;;;;;3.47;2.07;;;;;;;26.61;27.22;100075.25;5091443;28;20190;-57
2022/07/18 07:42:07;;;;;;;5.23;2.30;;;;;;;26.73;27.69;100074.72;5091323;28;20252;-57
2022/07/18 07:44:34;;;;;;;3.90;2.10;;;;;;;26.71;25.75;100073.06;5091638;28;20191;-57
2022/07/18 07:47:01;;;;;;;3.13;2.30;;;;;;;26.71;25.45;100075.72;5091540;28;20259;-57
2022/07/18 07:49:28;;;;;;;4.27;1.90;;;;;;;26.59;26.01;100066.50;5091380;28;20187;-57
2022/07/18 07:51:55;;;;;;;2.67;2.23;;;;;;;26.51;26.09;100068.59;5091156;28;20661;-57
2022/07/18 07:54:22;;;;;;;2.80;2.17;;;;;;;26.61;27.42;100071.75;5090743;28;20215;-57
2022/07/18 07:56:50;;;;;;;6.67;2.00;;;;;;;26.74;26.16;100076.47;5091135;28;20234;-57
2022/07/18 07:59:17;;;;;;;3.63;2.15;;;;;;;26.79;26.09;100078.94;5091067;28;20198;-57
2022/07/18 08:01:44;;;;;;;2.90;2.13;;;;;;;26.99;25.95;100075.47;5090780;28;20191;-57
2022/07/18 08:04:11;;;;;;;2.77;2.10;;;;;;;27.07;25.70;100074.25;5090861;28;20236;-57
2022/07/18 08:06:38;;;;;;;2.97;1.80;;;;;;;27.08;26.42;100075.97;5090715;28;20649;-56
2022/07/18 08:09:06;;;;;;;2.60;2.17;;;;;;;27.10;25.92;100078.53;5090891;28;20195;-57
2022/07/18 08:11:33;;;;;;;4.07;1.97;;;;;;;27.16;26.07;100071.22;5091327;28;20191;-57
2022/07/18 08:14:01;;;;;;;2.93;1.90;;;;;;;27.05;25.01;100083.16;5090829;28;20589;-57
2022/07/18 08:16:28;;;;;;;2.80;2.30;;;;;;;27.14;24.67;100080.97;5090866;28;20546;-57
2022/07/18 08:18:55;;;;;;;2.77;2.00;;;;;;;27.36;24.25;100073.84;5090555;28;20436;-58
2022/07/18 08:21:22;;;;;;;3.63;1.90;;;;;;;27.38;23.81;100072.03;5090752;28;20440;-57
2022/07/18 08:23:48;;;;;;;2.53;1.53;;;;;;;27.45;23.04;100072.63;5090995;28;20747;-58
2022/07/18 08:26:15;;;;;;;2.20;2.00;;;;;;;27.39;23.22;100065.81;5090846;28;20198;-58
2022/07/18 08:28:42;;;;;;;7.47;2.20;;;;;;;27.39;23.77;100075.50;5090950;28;20531;-58
2022/07/18 08:31:11;;;;;;;4.22;2.20;;;;;;;27.36;24.35;100073.84;5090428;28;20198;-58
2022/07/18 08:33:38;;;;;;;4.37;2.77;;;;;;;27.47;24.36;100070.78;5090295;28;20716;-67
2022/07/18 08:36:05;;;;;;;4.93;2.25;;;;;;;27.41;24.03;100066.63;5090745;28;21200;-66
2022/07/18 08:38:32;;;;;;;3.08;2.20;;;;;;;27.21;23.92;100076.31;5090714;28;20201;-66
2022/07/18 08:40:59;;;;;;;6.43;3.03;;;;;;;27.18;24.18;100079.06;5090053;28;20586;-66
2022/07/18 08:43:26;;;;;;;3.07;2.00;;;;;;;27.31;24.29;100075.84;5090251;28;20199;-65
2022/07/18 08:45:56;;;;;;;3.50;2.63;;;;;;;27.52;24.67;100074.09;5090630;28;20198;-65
2022/07/18 08:48:25;;;;;;;4.37;2.37;;;;;;;27.78;25.24;100080.84;5090658;28;20199;-66
2022/07/18 08:50:52;;;;;;;3.88;2.08;;;;;;;27.89;23.56;100075.94;5090194;28;20203;-67
2022/07/18 08:53:20;;;;;;;4.27;2.20;;;;;;;28.00;24.37;100082.47;5090271;28;20317;-66
2022/07/18 08:55:48;;;;;;;3.63;2.47;;;;;;;28.09;24.44;100078.59;5089999;28;20187;-65
2022/07/18 08:58:17;;;;;;;4.03;2.30;;;;;;;28.26;24.54;100081.31;5089841;28;20230;-66
2022/07/18 09:00:44;;;;;;;6.30;3.25;;;;;;;28.41;24.49;100080.56;5089972;28;20210;-66
2022/07/18 09:03:12;;;;;;;5.03;2.05;;;;;;;28.09;24.00;100044.22;5090069;28;20193;-67
2022/07/18 09:05:41;;;;;;;2.67;2.00;;;;;;;27.92;24.87;100055.53;5089854;28;20190;-66
2022/07/18 09:08:10;;;;;;;3.70;2.00;;;;;;;27.77;24.79;100068.59;5089959;28;20671;-66
2022/07/18 09:10:42;;;;;;;2.92;2.15;;;;;;;27.79;24.72;100069.38;5088857;28;20432;-67
2022/07/18 09:13:09;;;;;;;3.17;2.40;;;;;;;27.87;25.49;100072.53;5089971;28;20218;-66
2022/07/18 09:15:56;;;;;;;4.22;2.65;;;;;;;28.07;25.83;100062.78;5089711;28;20208;-65
2022/07/18 09:18:27;;;;;;;3.85;2.30;;;;;;;28.27;25.93;100075.06;5089831;28;20672;-66
2022/07/18 09:21:01;;;;;;;8.85;2.42;;;;;;;28.47;26.17;100068.84;5089882;28;20191;-66
2022/07/18 09:23:30;;;;;;;3.00;2.38;;;;;;;28.57;24.21;100072.75;5089776;28;20194;-66
2022/07/18 09:25:57;;;;;;;5.93;2.05;;;;;;;28.61;24.20;100072.56;5089806;28;20570;-66
2022/07/18 09:28:24;;;;;;;5.10;2.67;;;;;;;28.71;24.27;100074.75;5089090;28;20537;-66
2022/07/18 09:30:51;;;;;;;3.10;2.90;;;;;;;28.95;23.91;100074.41;5090173;28;20452;-66
2022/07/18 09:33:20;;;;;;;3.97;2.63;;;;;;;29.10;24.01;100070.16;5089339;28;20230;-66
2022/07/18 09:35:49;;;;;;;3.75;3.45;;;;;;;29.31;24.27;100071.72;5089486;28;20191;-66
2022/07/18 09:38:18;;;;;;;7.20;2.17;;;;;;;29.16;23.98;100062.78;5089069;28;20194;-66
2022/07/18 09:40:47;;;;;;;4.60;2.20;;;;;;;29.21;23.45;100067.81;5088953;28;20645;-66
2022/07/18 09:43:16;;;;;;;4.88;2.20;;;;;;;29.05;23.81;100072.19;5089227;28;20183;-66
2022/07/18 09:45:46;;;;;;;3.80;2.33;;;;;;;29.09;23.93;100068.47;5089674;28;20202;-65
2022/07/18 09:48:14;;;;;;;3.10;2.35;;;;;;;28.91;23.24;100066.72;5089370;28;20577;-65
2022/07/18 09:50:43;;;;;;;2.58;2.38;;;;;;;28.74;23.89;100056.09;5089167;28;20195;-66
2022/07/18 09:53:13;;;;;;;4.13;2.70;;;;;;;28.80;24.08;100059.31;5090773;28;20218;-66
2022/07/18 09:55:50;;;;;;;3.25;2.28;;;;;;;28.80;24.01;100061.97;5093354;28;20187;-66
2022/07/18 09:58:20;;;;;;;5.45;3.10;;;;;;;28.91;24.43;100057.00;5093057;28;20727;-66
2022/07/18 10:00:48;;;;;;;2.40;2.20;;;;;;;29.15;24.01;100055.75;5093443;28;20449;-65
2022/07/18 10:03:16;;;;;;;3.80;2.58;;;;;;;29.25;23.77;100056.19;5093253;28;20657;-65
2022/07/18 10:05:44;;;;;;;3.95;2.47;;;;;;;29.43;24.03;100055.22;5093096;28;20277;-66
2022/07/18 10:08:13;;;;;;;3.10;2.25;;;;;;;29.57;23.81;100054.50;5093097;28;20190;-66
2022/07/18 10:10:41;;;;;;;3.80;2.35;;;;;;;29.40;24.12;100052.72;5093429;28;20259;-66
2022/07/18 10:13:10;;;;;;;3.13;2.90;;;;;;;29.40;23.76;100041.28;5092968;28;20593;-66
2022/07/18 10:15:38;;;;;;;5.45;3.10;;;;;;;29.56;24.11;100037.75;5092942;28;20203;-66
2022/07/18 10:18:07;;;;;;;4.68;2.95;;;;;;;29.75;23.50;100033.19;5092827;28;20191;-57
2022/07/18 10:20:36;;;;;;;4.15;3.55;;;;;;;29.92;23.74;100036.75;5092649;28;20194;-57
2022/07/18 10:23:10;;;;;;;12.93;2.50;;;;;;;30.05;23.44;100029.84;5092729;28;20661;-57
2022/07/18 10:25:37;;;;;;;9.45;2.85;;;;;;;29.99;23.58;100006.31;5093019;28;20210;-57
2022/07/18 10:28:07;;;;;;;3.58;2.80;;;;;;;29.91;23.30;100024.44;5093157;28;20187;-57
2022/07/18 10:30:42;;;;;;;3.28;2.97;;;;;;;29.96;23.74;100027.69;5093031;28;20194;-57
2022/07/18 10:33:38;;;;;;;3.47;3.17;;;;;;;29.99;23.68;100019.59;5092758;28;20575;-57
2022/07/18 10:36:07;;;;;;;3.42;3.13;;;;;;;30.00;25.06;100021.28;5092540;28;20322;-57
2022/07/18 10:38:35;;;;;;;4.93;3.33;;;;;;;30.04;24.60;100017.53;5092685;28;20206;-57
2022/07/18 10:41:09;;;;;;;4.57;3.08;;;;;;;30.14;24.77;100024.88;5092647;28;20772;-57
2022/07/18 10:43:44;;;;;;;5.10;3.78;;;;;;;30.14;24.96;100001.03;5092680;28;20190;-57
2022/07/18 10:46:14;;;;;;;10.68;3.33;;;;;;;30.03;24.50;100018.44;5092664;28;20279;-57
2022/07/18 10:49:00;;;;;;;4.13;3.72;;;;;;;30.16;25.17;100004.44;5092442;28;20199;-57
2022/07/18 10:51:32;;;;;;;4.27;3.83;;;;;;;30.36;26.18;100003.31;5091354;28;20737;-57
2022/07/18 10:54:12;;;;;;;4.20;2.78;;;;;;;30.62;26.07;100009.81;5088438;28;20477;-57
2022/07/18 10:57:11;;;;;;;3.83;3.53;;;;;;;30.68;25.70;99999.72;5086870;28;20226;-57
2022/07/18 11:00:01;;;;;;;4.63;4.00;;;;;;;30.78;25.32;99997.38;5080775;28;20730;-57
2022/07/18 11:02:37;;;;;;;4.95;4.35;;;;;;;30.55;26.05;99996.03;5072291;28;20191;-58
2022/07/18 11:05:35;;;;;;;4.05;3.67;;;;;;;30.76;26.03;100002.78;5071801;28;20183;-58
2022/07/18 11:08:24;;;;;;;4.55;3.30;;;;;;;30.89;26.13;99990.50;5072464;28;20198;-58
2022/07/18 11:11:15;;;;;;;7.20;3.42;;;;;;;30.95;24.53;99994.63;5072224;28;20191;-58
2022/07/18 11:13:55;;;;;;;5.05;3.15;;;;;;;30.88;24.92;99991.44;5073567;28;20450;-58
2022/07/18 11:16:24;;;;;;;3.75;3.45;;;;;;;30.96;24.50;99991.84;5087051;28;20187;-67
2022/07/18 11:19:19;;;;;;;4.32;3.75;;;;;;;31.05;23.97;99982.50;5091868;28;20657;-66
2022/07/18 11:21:47;;;;;;;4.80;4.40;;;;;;;31.12;24.74;99983.00;5090154;28;20209;-66
2022/07/18 11:24:14;;;;;;;7.18;5.63;;;;;;;31.15;24.50;99978.31;5091450;28;20436;-66
2022/07/18 11:26:46;;;;;;;8.25;3.60;;;;;;;31.18;23.67;99977.31;5088737;28;20186;-66
2022/07/18 11:29:15;;;;;;;4.10;3.53;;;;;;;31.21;23.79;99982.41;5082437;28;20183;-66
2022/07/18 11:31:47;;;;;;;5.15;4.20;;;;;;;31.14;23.92;99991.72;5080275;28;20268;-66
2022/07/18 11:34:15;;;;;;;4.75;3.67;;;;;;;31.11;24.87;99978.63;5086776;28;20298;-67
2022/07/18 11:36:46;;;;;;;4.35;3.40;;;;;;;31.11;24.66;99975.97;5081018;28;20253;-58